createdAt,value
2022-08-22T00:00:14.998Z,1.30
2022-08-22T00:02:46.232Z,1.20
2022-08-22T00:02:48.332Z,1.75
2022-08-22T00:02:48.496Z,1.10
2022-08-22T00:02:48.678Z,1.33
2022-08-22T00:03:01.343Z,0.98
2022-08-22T00:03:15.839Z,1.20
2022-08-22T00:05:51.992Z,0.93
2022-08-22T00:08:50.980Z,1.30
2022-08-22T00:11:17.894Z,1.40
2022-08-22T00:14:05.593Z,1.20
2022-08-22T00:16:55.450Z,1.27
2022-08-22T00:19:39.389Z,1.00
2022-08-22T00:22:19.667Z,1.30
2022-08-22T00:25:07.414Z,1.20
2022-08-22T00:27:59.445Z,1.03
2022-08-22T00:30:30.336Z,1.23
2022-08-22T00:33:02.725Z,1.13
2022-08-22T00:35:44.991Z,1.10
2022-08-22T00:38:28.213Z,1.13
2022-08-22T00:41:21.653Z,1.10
2022-08-22T00:44:26.409Z,1.00
2022-08-22T00:47:06.689Z,1.30
2022-08-22T00:49:43.945Z,0.90
2022-08-22T00:52:21.857Z,1.47
2022-08-22T00:55:01.684Z,1.10
2022-08-22T00:57:51.502Z,1.13
2022-08-22T01:00:22.493Z,1.50
2022-08-22T01:03:11.414Z,1.07
2022-08-22T01:05:48.291Z,1.30
2022-08-22T01:08:40.874Z,1.40
2022-08-22T01:11:48.117Z,1.30
2022-08-22T01:14:40.843Z,1.60
2022-08-22T01:17:27.464Z,1.50
2022-08-22T01:20:13.801Z,1.30
2022-08-22T01:23:15.711Z,1.50
2022-08-22T01:26:21.033Z,1.83
2022-08-22T01:29:27.749Z,1.77
2022-08-22T01:32:33.089Z,1.37
2022-08-22T01:35:19.244Z,1.40
2022-08-22T01:38:30.104Z,1.37
2022-08-22T01:41:06.544Z,1.80
2022-08-22T01:44:02.225Z,1.47
2022-08-22T01:46:59.460Z,1.30
2022-08-22T01:49:35.506Z,1.40
2022-08-22T01:52:19.624Z,1.23
2022-08-22T01:55:02.939Z,1.20
2022-08-22T01:57:29.885Z,1.50
2022-08-22T02:00:07.879Z,1.60
2022-08-22T02:03:13.636Z,1.20
2022-08-22T02:06:17.530Z,1.60
2022-08-22T02:09:12.642Z,1.63
2022-08-22T02:11:55.450Z,1.50
2022-08-22T02:14:38.981Z,1.50
2022-08-22T02:17:22.172Z,1.60
2022-08-22T02:20:20.629Z,1.40
2022-08-22T02:23:04.246Z,1.20
2022-08-22T02:26:02.648Z,1.83
2022-08-22T02:28:57.077Z,1.70
2022-08-22T02:31:40.249Z,2.10
2022-08-22T02:34:38.436Z,1.50
2022-08-22T02:37:30.150Z,1.27
2022-08-22T02:40:14.847Z,1.53
2022-08-22T02:42:59.648Z,1.40
2022-08-22T02:45:46.437Z,1.60
2022-08-22T02:48:27.930Z,1.70
2022-08-22T02:51:12.962Z,1.73
2022-08-22T02:54:02.086Z,1.93
2022-08-22T02:56:35.834Z,1.43
2022-08-22T02:59:24.048Z,2.00
2022-08-22T03:01:53.270Z,1.57
2022-08-22T03:04:47.096Z,1.60
2022-08-22T03:07:31.851Z,2.80
2022-08-22T03:10:26.193Z,1.97
2022-08-22T03:13:11.018Z,1.33
2022-08-22T03:15:48.439Z,1.80
2022-08-22T03:18:52.766Z,1.60
2022-08-22T03:21:41.285Z,1.47
2022-08-22T03:24:25.570Z,1.63
2022-08-22T03:27:15.276Z,1.80
2022-08-22T03:30:06.466Z,1.60
2022-08-22T03:33:13.040Z,1.43
2022-08-22T03:35:45.030Z,1.77
2022-08-22T03:38:28.723Z,1.70
2022-08-22T03:41:27.515Z,1.70
2022-08-22T03:43:58.558Z,1.87
2022-08-22T03:46:36.389Z,1.63
2022-08-22T03:49:42.113Z,1.73
2022-08-22T03:52:56.846Z,1.80
2022-08-22T03:55:51.054Z,2.03
2022-08-22T03:58:40.233Z,1.73
2022-08-22T04:01:44.201Z,1.60
2022-08-22T04:04:11.858Z,1.57
2022-08-22T04:06:56.437Z,1.93
2022-08-22T04:09:48.806Z,1.40
2022-08-22T04:12:38.170Z,1.60
2022-08-22T04:15:29.431Z,1.63
2022-08-22T04:18:35.661Z,1.47
2022-08-22T04:21:03.871Z,1.60
2022-08-22T04:23:41.066Z,1.50
2022-08-22T04:26:15.728Z,1.33
2022-08-22T04:29:05.706Z,1.40
2022-08-22T04:31:41.595Z,1.80
2022-08-22T04:34:22.497Z,1.60
2022-08-22T04:37:05.609Z,1.83
2022-08-22T04:40:07.550Z,1.53
2022-08-22T04:42:41.044Z,2.17
2022-08-22T04:45:51.638Z,2.23
2022-08-22T04:48:29.549Z,1.47
2022-08-22T04:51:32.214Z,1.70
2022-08-22T04:54:30.942Z,1.87
2022-08-22T04:57:16.346Z,1.40
2022-08-22T04:59:45.898Z,1.53
2022-08-22T05:02:23.155Z,1.43
2022-08-22T05:04:59.218Z,1.77
2022-08-22T05:07:36.247Z,1.33
2022-08-22T05:10:16.433Z,1.40
2022-08-22T05:12:53.453Z,1.13
2022-08-22T05:15:26.470Z,1.47
2022-08-22T05:17:58.163Z,1.60
2022-08-22T05:20:28.578Z,1.30
2022-08-22T05:23:01.542Z,1.70
2022-08-22T05:25:36.977Z,1.67
2022-08-22T05:28:34.548Z,1.77
2022-08-22T05:31:14.078Z,1.30
2022-08-22T05:33:47.913Z,1.40
2022-08-22T05:36:27.448Z,1.33
2022-08-22T05:39:10.176Z,1.70
2022-08-22T05:41:40.655Z,1.90
2022-08-22T05:44:18.230Z,1.23
2022-08-22T05:46:52.554Z,1.10
2022-08-22T05:49:39.084Z,1.40
2022-08-22T05:52:25.815Z,1.57
2022-08-22T05:55:16.887Z,1.27
2022-08-22T05:57:50.603Z,1.60
2022-08-22T06:00:22.659Z,1.83
2022-08-22T06:03:20.325Z,1.27
2022-08-22T06:05:53.753Z,1.23
2022-08-22T06:08:36.203Z,1.33
2022-08-22T06:11:25.654Z,1.17
2022-08-22T06:14:18.043Z,1.30
2022-08-22T06:17:02.639Z,1.37
2022-08-22T06:19:32.791Z,1.77
2022-08-22T06:22:05.074Z,1.27
2022-08-22T06:24:36.033Z,1.23
2022-08-22T06:27:14.424Z,1.13
2022-08-22T06:29:46.896Z,1.53
2022-08-22T06:32:44.611Z,1.33
2022-08-22T06:35:29.614Z,1.10
2022-08-22T06:38:00.664Z,1.37
2022-08-22T06:40:29.484Z,1.00
2022-08-22T06:42:58.605Z,1.57
2022-08-22T06:45:32.856Z,2.00
2022-08-22T06:48:07.409Z,1.27
2022-08-22T06:50:40.506Z,1.40
2022-08-22T06:53:16.966Z,1.30
2022-08-22T06:55:52.261Z,1.63
2022-08-22T06:58:27.209Z,1.40
2022-08-22T07:01:15.201Z,1.40
2022-08-22T07:03:51.070Z,1.17
2022-08-22T07:06:30.767Z,1.17
2022-08-22T07:08:59.083Z,1.60
2022-08-22T07:11:30.030Z,1.80
2022-08-22T07:14:14.933Z,1.37
2022-08-22T07:16:53.992Z,1.47
2022-08-22T07:19:29.677Z,1.30
2022-08-22T07:22:00.920Z,0.90
2022-08-22T07:24:32.031Z,1.27
2022-08-22T07:27:23.193Z,1.40
2022-08-22T07:30:28.077Z,1.20
2022-08-22T07:33:18.995Z,1.10
2022-08-22T07:36:14.781Z,1.50
2022-08-22T07:38:49.031Z,1.10
2022-08-22T07:41:34.709Z,1.20
2022-08-22T07:44:14.912Z,1.27
2022-08-22T07:47:07.258Z,1.25
2022-08-22T07:49:49.592Z,1.20
2022-08-22T07:52:17.743Z,0.90
2022-08-22T07:54:48.529Z,1.20
2022-08-22T07:57:27.030Z,1.57
2022-08-22T07:59:59.887Z,1.53
2022-08-22T08:02:28.774Z,1.07
2022-08-22T08:05:00.440Z,1.07
2022-08-22T08:07:32.165Z,0.90
2022-08-22T08:10:13.253Z,0.80
2022-08-22T08:12:54.135Z,0.90
2022-08-22T08:15:34.402Z,1.17
2022-08-22T08:18:19.347Z,0.83
2022-08-22T08:21:10.831Z,0.60
2022-08-22T08:23:45.160Z,1.48
2022-08-22T08:26:17.376Z,0.80
2022-08-22T08:28:52.833Z,1.17
2022-08-22T08:31:31.915Z,1.13
2022-08-22T08:34:05.751Z,1.00
2022-08-22T08:36:58.563Z,1.30
2022-08-22T08:39:41.283Z,1.00
2022-08-22T08:42:29.570Z,1.38
2022-08-22T08:45:29.698Z,0.90
2022-08-22T08:48:06.472Z,1.00
2022-08-22T08:50:43.962Z,0.90
2022-08-22T08:53:43.292Z,1.38
2022-08-22T08:56:47.185Z,1.05
2022-08-22T08:59:26.541Z,0.80
2022-08-22T09:02:13.769Z,0.70
2022-08-22T09:04:59.517Z,0.70
2022-08-22T09:08:01.767Z,1.30
2022-08-22T09:11:09.969Z,0.70
2022-08-22T09:13:54.573Z,1.23
2022-08-22T09:17:01.800Z,1.25
2022-08-22T09:19:38.373Z,0.85
2022-08-22T09:22:14.470Z,0.80
2022-08-22T09:25:18.055Z,0.77
2022-08-22T09:27:48.889Z,0.90
2022-08-22T09:30:27.767Z,0.52
2022-08-22T09:33:14.844Z,0.60
2022-08-22T09:36:00.894Z,0.98
2022-08-22T09:38:38.097Z,0.70
2022-08-22T09:41:12.962Z,0.80
2022-08-22T09:43:52.006Z,0.85
2022-08-22T09:46:31.530Z,0.82
2022-08-22T09:49:34.953Z,0.98
2022-08-22T09:52:44.474Z,0.60
2022-08-22T09:55:35.188Z,0.93
2022-08-22T09:58:19.898Z,0.85
2022-08-22T10:01:11.539Z,0.73
2022-08-22T10:04:14.455Z,0.60
2022-08-22T10:07:08.544Z,1.10
2022-08-22T10:10:04.536Z,0.65
2022-08-22T10:12:45.032Z,0.70
2022-08-22T10:15:37.814Z,4.72
2022-08-22T10:18:10.362Z,0.60
2022-08-22T10:20:46.437Z,0.88
2022-08-22T10:23:57.586Z,0.88
2022-08-22T10:26:41.149Z,0.50
2022-08-22T10:29:31.941Z,0.50
2022-08-22T10:32:27.159Z,0.47
2022-08-22T10:35:13.780Z,0.50
2022-08-22T10:38:01.494Z,0.52
2022-08-22T10:40:41.786Z,0.63
2022-08-22T10:43:21.878Z,0.50
2022-08-22T10:46:17.110Z,0.40
2022-08-22T10:48:54.337Z,0.63
2022-08-22T10:51:53.382Z,0.65
2022-08-22T10:54:36.801Z,0.47
2022-08-22T10:57:29.394Z,0.40
2022-08-22T11:00:22.525Z,0.57
2022-08-22T11:03:21.806Z,0.68
2022-08-22T11:05:54.265Z,0.70
2022-08-22T11:09:20.600Z,0.40
2022-08-22T11:12:02.862Z,0.40
2022-08-22T11:14:45.722Z,0.30
2022-08-22T11:17:27.595Z,0.50
2022-08-22T11:20:21.459Z,0.65
2022-08-22T11:22:59.785Z,0.50
2022-08-22T11:26:04.913Z,0.57
2022-08-22T11:29:17.143Z,0.40
2022-08-22T11:32:05.671Z,0.45
2022-08-22T11:34:42.029Z,0.50
2022-08-22T11:37:43.990Z,0.40
2022-08-22T11:40:39.350Z,0.70
2022-08-22T11:43:17.320Z,0.55
2022-08-22T11:45:50.921Z,0.65
2022-08-22T11:48:34.405Z,0.47
2022-08-22T11:51:55.374Z,0.30
2022-08-22T11:54:42.485Z,0.50
2022-08-22T11:57:25.410Z,0.55
2022-08-22T12:00:13.157Z,0.90
2022-08-22T12:02:40.921Z,0.55
2022-08-22T12:05:26.307Z,0.35
2022-08-22T12:08:21.372Z,0.55
2022-08-22T12:11:01.521Z,0.70
2022-08-22T12:13:42.110Z,0.50
2022-08-22T12:16:18.272Z,0.47
2022-08-22T12:19:06.174Z,0.60
2022-08-22T12:22:02.389Z,0.35
2022-08-22T12:25:05.265Z,0.60
2022-08-22T12:28:03.618Z,0.50
2022-08-22T12:30:54.667Z,0.77
2022-08-22T12:34:18.099Z,0.40
2022-08-22T12:37:13.824Z,0.80
2022-08-22T12:40:02.144Z,0.50
2022-08-22T12:42:36.238Z,0.60
2022-08-22T12:45:33.758Z,0.40
2022-08-22T12:48:34.166Z,0.40
2022-08-22T12:51:27.406Z,0.57
2022-08-22T12:54:22.673Z,0.50
2022-08-22T12:57:23.300Z,1.52
2022-08-22T13:00:17.430Z,0.60
2022-08-22T13:02:54.940Z,0.65
2022-08-22T13:05:29.917Z,0.60
2022-08-22T13:08:09.425Z,0.50
2022-08-22T13:10:44.921Z,0.80
2022-08-22T13:13:31.560Z,0.57
2022-08-22T13:16:17.555Z,0.73
2022-08-22T13:18:57.017Z,0.65
2022-08-22T13:21:32.054Z,0.70
2022-08-22T13:24:17.017Z,0.70
2022-08-22T13:26:58.174Z,0.63
2022-08-22T13:29:42.912Z,0.85
2022-08-22T13:32:27.719Z,0.52
2022-08-22T13:34:57.629Z,0.50
2022-08-22T13:37:44.308Z,0.60
2022-08-22T13:40:22.311Z,0.55
2022-08-22T13:42:57.975Z,0.70
2022-08-22T13:45:29.074Z,0.60
2022-08-22T13:48:03.770Z,0.43
2022-08-22T13:50:53.206Z,0.80
2022-08-22T13:53:38.010Z,0.60
2022-08-22T13:56:26.756Z,0.68
2022-08-22T13:58:59.117Z,0.40
2022-08-22T14:01:36.508Z,0.60
2022-08-22T14:04:35.619Z,0.90
2022-08-22T14:07:06.140Z,0.57
2022-08-22T14:09:58.154Z,0.60
2022-08-22T14:12:33.859Z,0.50
2022-08-22T14:15:32.197Z,0.43
2022-08-22T14:18:30.307Z,0.57
2022-08-22T14:21:27.404Z,0.70
2022-08-22T14:24:30.738Z,0.60
2022-08-22T14:27:05.140Z,0.55
2022-08-22T14:29:40.483Z,0.75
2022-08-22T14:32:23.344Z,0.57
2022-08-22T14:35:03.084Z,0.60
2022-08-22T14:37:38.974Z,0.50
2022-08-22T14:40:19.782Z,0.70
2022-08-22T14:43:05.034Z,0.50
2022-08-22T14:45:45.467Z,0.50
2022-08-22T14:48:31.578Z,0.90
2022-08-22T14:51:24.401Z,0.77
2022-08-22T14:53:52.860Z,0.52
2022-08-22T14:56:24.713Z,0.60
2022-08-22T14:59:02.677Z,0.60
2022-08-22T15:01:34.279Z,0.68
2022-08-22T15:04:23.581Z,0.60
2022-08-22T15:06:57.822Z,0.68
2022-08-22T15:09:40.555Z,0.80
2022-08-22T15:12:25.760Z,0.65
2022-08-22T15:15:05.743Z,0.95
2022-08-22T15:17:44.652Z,0.77
2022-08-22T15:20:38.298Z,0.90
2022-08-22T15:23:23.379Z,0.90
2022-08-22T15:26:03.708Z,0.75
2022-08-22T15:28:52.664Z,0.70
2022-08-22T15:31:22.388Z,0.55
2022-08-22T15:33:52.009Z,0.90
2022-08-22T15:36:24.182Z,0.85
2022-08-22T15:39:31.134Z,0.85
2022-08-22T15:42:00.989Z,0.80
2022-08-22T15:44:33.651Z,0.80
2022-08-22T15:47:24.317Z,0.90
2022-08-22T15:50:06.311Z,0.95
2022-08-22T15:53:06.806Z,1.33
2022-08-22T15:55:37.048Z,0.65
2022-08-22T15:58:13.200Z,0.57
2022-08-22T16:01:02.685Z,0.88
2022-08-22T16:03:34.437Z,0.70
2022-08-22T16:06:07.918Z,1.25
2022-08-22T16:08:36.311Z,0.88
2022-08-22T16:11:04.618Z,1.00
2022-08-22T16:13:38.168Z,0.90
2022-08-22T16:16:25.173Z,0.73
2022-08-22T16:18:52.662Z,0.70
2022-08-22T16:21:24.295Z,1.05
2022-08-22T16:23:51.343Z,1.00
2022-08-22T16:26:21.089Z,0.80
2022-08-22T16:28:59.175Z,1.00
2022-08-22T16:31:29.185Z,1.20
2022-08-22T16:34:20.605Z,0.70
2022-08-22T16:36:51.189Z,0.80
2022-08-22T16:39:21.599Z,1.17
2022-08-22T16:41:54.274Z,0.98
2022-08-22T16:44:30.697Z,1.17
2022-08-22T16:47:09.656Z,1.50
2022-08-22T16:49:55.905Z,0.88
2022-08-22T16:52:24.812Z,0.80
2022-08-22T16:54:58.802Z,1.23
2022-08-22T16:57:38.113Z,1.23
2022-08-22T17:00:26.734Z,0.70
2022-08-22T17:03:23.106Z,0.68
2022-08-22T17:06:13.769Z,0.65
2022-08-22T17:09:19.967Z,0.80
2022-08-22T17:12:16.799Z,1.38
2022-08-22T17:15:14.016Z,0.88
2022-08-22T17:18:33.506Z,1.40
2022-08-22T17:21:06.441Z,0.68
2022-08-22T17:24:06.114Z,0.95
2022-08-22T17:26:55.217Z,1.23
2022-08-22T17:29:29.722Z,0.68
2022-08-22T17:32:25.581Z,1.00
2022-08-22T17:35:03.134Z,0.73
2022-08-22T17:37:42.784Z,0.95
2022-08-22T17:40:33.633Z,1.08
2022-08-22T17:43:07.587Z,0.80
2022-08-22T17:45:37.963Z,1.20
2022-08-22T17:48:31.144Z,0.82
2022-08-22T17:51:31.438Z,0.98
2022-08-22T17:54:15.037Z,1.00
2022-08-22T17:56:50.156Z,0.90
2022-08-22T17:59:36.998Z,0.47
2022-08-22T18:02:32.711Z,0.75
2022-08-22T18:05:14.113Z,1.08
2022-08-22T18:08:00.121Z,0.98
2022-08-22T18:10:48.137Z,1.05
2022-08-22T18:13:34.132Z,1.10
2022-08-22T18:16:16.449Z,1.20
2022-08-22T18:18:56.081Z,1.10
2022-08-22T18:21:58.809Z,1.13
2022-08-22T18:24:44.002Z,1.30
2022-08-22T18:27:54.408Z,1.20
2022-08-22T18:30:28.423Z,0.90
2022-08-22T18:33:32.913Z,0.98
2022-08-22T18:36:22.427Z,0.95
2022-08-22T18:39:04.963Z,0.90
2022-08-22T18:41:41.136Z,0.67
2022-08-22T18:44:12.077Z,0.88
2022-08-22T18:46:46.651Z,0.70
2022-08-22T18:49:24.090Z,0.90
2022-08-22T18:52:09.194Z,0.77
2022-08-22T18:55:02.017Z,1.10
2022-08-22T18:57:45.084Z,0.90
2022-08-22T19:00:19.534Z,1.33
2022-08-22T19:02:57.758Z,1.17
2022-08-22T19:06:02.305Z,0.90
2022-08-22T19:08:53.654Z,0.90
2022-08-22T19:11:46.125Z,0.93
2022-08-22T19:14:20.237Z,1.10
2022-08-22T19:17:06.803Z,1.03
2022-08-22T19:20:06.156Z,0.80
2022-08-22T19:22:36.991Z,1.07
2022-08-22T19:25:13.087Z,0.80
2022-08-22T19:28:03.347Z,0.97
2022-08-22T19:30:34.567Z,0.70
2022-08-22T19:33:08.901Z,0.90
2022-08-22T19:35:47.206Z,1.10
2022-08-22T19:38:51.737Z,1.00
2022-08-22T19:41:43.718Z,1.00
2022-08-22T19:44:33.771Z,0.90
2022-08-22T19:47:20.780Z,0.80
2022-08-22T19:49:54.181Z,1.27
2022-08-22T19:52:59.306Z,1.17
2022-08-22T19:55:39.372Z,1.23
2022-08-22T19:58:32.068Z,0.70
2022-08-22T20:01:31.848Z,0.70
2022-08-22T20:04:09.976Z,0.93
2022-08-22T20:06:54.722Z,0.80
2022-08-22T20:09:56.428Z,1.10
2022-08-22T20:12:29.509Z,0.80
2022-08-22T20:14:57.633Z,1.00
2022-08-22T20:17:25.285Z,0.90
2022-08-22T20:20:17.584Z,0.80
2022-08-22T20:23:03.393Z,0.80
2022-08-22T20:25:44.489Z,0.90
2022-08-22T20:28:31.158Z,1.37
2022-08-22T20:31:04.727Z,0.80
2022-08-22T20:33:37.065Z,1.07
2022-08-22T20:36:13.816Z,0.90
2022-08-22T20:39:03.042Z,0.67
2022-08-22T20:41:56.279Z,1.00
2022-08-22T20:44:37.741Z,1.00
2022-08-22T20:47:14.151Z,0.80
2022-08-22T20:49:50.134Z,0.73
2022-08-22T20:52:19.817Z,0.90
2022-08-22T20:54:58.454Z,0.80
2022-08-22T20:57:27.042Z,1.07
2022-08-22T21:00:11.525Z,1.23
2022-08-22T21:03:05.470Z,0.70
2022-08-22T21:05:42.821Z,0.83
2022-08-22T21:08:24.737Z,1.23
2022-08-22T21:11:22.460Z,1.03
2022-08-22T21:13:51.736Z,0.87
2022-08-22T21:16:22.719Z,0.80
2022-08-22T21:18:52.778Z,1.00
2022-08-22T21:21:28.847Z,0.90
2022-08-22T21:24:01.199Z,1.27
2022-08-22T21:26:33.762Z,1.00
2022-08-22T21:29:07.350Z,1.00
2022-08-22T21:31:50.082Z,0.97
2022-08-22T21:34:34.024Z,0.97
2022-08-22T21:37:09.680Z,1.07
2022-08-22T21:39:44.678Z,0.90
2022-08-22T21:42:22.681Z,0.70
2022-08-22T21:45:50.909Z,0.90
2022-08-22T21:48:55.065Z,0.80
2022-08-22T21:51:42.887Z,0.97
2022-08-22T21:54:33.277Z,1.00
2022-08-22T21:57:33.834Z,0.80
2022-08-22T22:00:05.250Z,0.97
2022-08-22T22:02:36.880Z,0.60
2022-08-22T22:05:23.474Z,0.80
2022-08-22T22:07:51.724Z,0.90
2022-08-22T22:10:22.670Z,1.33
2022-08-22T22:12:53.413Z,1.00
2022-08-22T22:15:26.511Z,0.83
2022-08-22T22:17:55.425Z,0.80
2022-08-22T22:20:26.224Z,1.00
2022-08-22T22:22:54.677Z,1.00
2022-08-22T22:25:40.825Z,1.10
2022-08-22T22:28:17.838Z,0.90
2022-08-22T22:30:46.289Z,1.10
2022-08-22T22:33:13.921Z,0.83
2022-08-22T22:35:42.535Z,1.43
2022-08-22T22:38:12.193Z,0.80
2022-08-22T22:40:41.491Z,0.90
2022-08-22T22:43:10.614Z,1.20
2022-08-22T22:45:39.179Z,1.00
2022-08-22T22:48:08.149Z,0.87
2022-08-22T22:50:40.598Z,0.93
2022-08-22T22:53:10.022Z,1.10
2022-08-22T22:55:41.610Z,1.27
2022-08-22T22:58:09.819Z,0.80
2022-08-22T23:00:39.163Z,1.10
2022-08-22T23:03:07.548Z,1.00
2022-08-22T23:05:35.092Z,0.90
2022-08-22T23:08:03.422Z,1.07
2022-08-22T23:10:31.250Z,0.80
2022-08-22T23:12:59.141Z,1.00
2022-08-22T23:15:27.973Z,1.10
2022-08-22T23:17:55.771Z,0.73
2022-08-22T23:20:24.090Z,1.07
2022-08-22T23:22:51.038Z,1.27
2022-08-22T23:25:18.662Z,0.70
2022-08-22T23:27:52.399Z,0.83
2022-08-22T23:30:21.901Z,1.00
2022-08-22T23:32:48.905Z,1.00
2022-08-22T23:35:17.396Z,0.70
2022-08-22T23:37:44.321Z,1.00
2022-08-22T23:40:12.186Z,0.80
2022-08-22T23:42:39.957Z,0.90
2022-08-22T23:45:08.619Z,0.70
2022-08-22T23:47:37.252Z,0.90
2022-08-22T23:50:05.935Z,1.03
2022-08-22T23:52:34.335Z,1.27
2022-08-22T23:55:01.948Z,0.83
2022-08-22T23:57:30.238Z,1.10
2022-08-22T23:59:58.733Z,0.97
